createdAt,value
2018-05-11T00:02:24.740Z,7.12
2018-05-11T00:04:51.354Z,8.20
2018-05-11T00:07:18.499Z,6.95
2018-05-11T00:09:44.943Z,7.78
2018-05-11T00:12:12.091Z,9.73
2018-05-11T00:14:39.377Z,4.35
2018-05-11T00:17:05.815Z,6.32
2018-05-11T00:19:32.776Z,9.10
2018-05-11T00:21:59.228Z,9.60
2018-05-11T00:24:25.653Z,6.85
2018-05-11T00:26:52.076Z,7.65
2018-05-11T00:29:18.451Z,5.55
2018-05-11T00:31:44.900Z,5.22
2018-05-11T00:34:11.312Z,6.12
2018-05-11T00:36:39.055Z,5.57
2018-05-11T00:39:05.500Z,5.75
2018-05-11T00:41:32.661Z,8.85
2018-05-11T00:43:59.845Z,8.00
2018-05-11T00:46:26.311Z,9.40
2018-05-11T00:48:52.681Z,6.68
2018-05-11T00:51:19.132Z,5.12
2018-05-11T00:53:45.508Z,4.65
2018-05-11T00:56:12.631Z,18.37
2018-05-11T00:58:39.017Z,7.62
2018-05-11T01:01:05.463Z,11.82
2018-05-11T01:03:31.853Z,8.95
2018-05-11T01:05:58.322Z,3.42
2018-05-11T01:08:24.697Z,13.10
2018-05-11T01:10:51.152Z,6.50
2018-05-11T01:13:17.551Z,2.75
2018-05-11T01:15:43.955Z,13.65
2018-05-11T01:18:10.324Z,6.28
2018-05-11T01:20:36.776Z,8.68
2018-05-11T01:23:03.074Z,8.90
2018-05-11T01:25:29.491Z,7.68
2018-05-11T01:27:55.912Z,4.18
2018-05-11T01:30:22.311Z,9.68
2018-05-11T01:32:49.398Z,6.10
2018-05-11T01:35:15.808Z,9.80
2018-05-11T01:37:42.200Z,5.53
2018-05-11T01:40:08.616Z,6.72
2018-05-11T01:42:34.998Z,7.00
2018-05-11T01:45:02.081Z,5.15
2018-05-11T01:47:28.491Z,6.43
2018-05-11T01:49:54.917Z,16.15
2018-05-11T01:52:21.346Z,4.00
2018-05-11T01:54:48.452Z,5.40
2018-05-11T01:57:14.853Z,6.37
2018-05-11T01:59:41.232Z,6.28
2018-05-11T02:02:08.359Z,7.60
2018-05-11T02:04:34.772Z,7.85
2018-05-11T02:07:01.173Z,4.25
2018-05-11T02:09:27.564Z,7.97
2018-05-11T02:11:53.991Z,6.45
2018-05-11T02:14:20.371Z,6.43
2018-05-11T02:16:46.761Z,5.32
2018-05-11T02:19:13.203Z,9.68
2018-05-11T02:21:40.349Z,8.63
2018-05-11T02:24:07.469Z,7.45
2018-05-11T02:26:33.874Z,5.93
2018-05-11T02:29:00.263Z,6.28
2018-05-11T02:31:27.410Z,3.78
2018-05-11T02:33:53.806Z,6.57
2018-05-11T02:36:20.244Z,5.50
2018-05-11T02:38:46.627Z,5.85
2018-05-11T02:41:13.061Z,4.00
2018-05-11T02:43:39.447Z,5.05
2018-05-11T02:46:05.843Z,5.00
2018-05-11T02:48:32.255Z,5.68
2018-05-11T02:50:58.660Z,5.20
2018-05-11T02:53:25.805Z,7.25
2018-05-11T02:55:52.965Z,4.40
2018-05-11T02:58:19.372Z,4.72
2018-05-11T03:00:45.738Z,8.07
2018-05-11T03:03:12.184Z,8.02
2018-05-11T03:05:38.695Z,6.80
2018-05-11T03:08:05.020Z,4.57
2018-05-11T03:10:32.135Z,11.20
2018-05-11T03:12:58.525Z,5.30
2018-05-11T03:15:24.951Z,5.10
2018-05-11T03:17:51.325Z,7.20
2018-05-11T03:20:17.716Z,7.00
2018-05-11T03:22:44.100Z,10.20
2018-05-11T03:25:10.530Z,4.93
2018-05-11T03:27:36.865Z,7.55
2018-05-11T03:30:03.267Z,7.45
2018-05-11T03:32:29.706Z,4.90
2018-05-11T03:34:56.116Z,5.78
2018-05-11T03:37:23.039Z,10.73
2018-05-11T03:39:49.451Z,9.52
2018-05-11T03:42:15.857Z,7.53
2018-05-11T03:44:42.269Z,4.75
2018-05-11T03:47:08.663Z,10.07
2018-05-11T03:49:35.105Z,7.45
2018-05-11T03:52:01.529Z,8.38
2018-05-11T03:54:27.904Z,5.70
2018-05-11T03:56:54.354Z,8.32
2018-05-11T03:59:21.473Z,7.37
2018-05-11T04:02:06.312Z,5.12
2018-05-11T04:04:51.555Z,8.43
2018-05-11T04:07:37.200Z,6.93
2018-05-11T04:10:03.632Z,11.02
2018-05-11T04:12:30.009Z,12.10
2018-05-11T04:14:56.496Z,8.93
2018-05-11T04:17:22.833Z,12.50
2018-05-11T04:19:49.232Z,5.47
2018-05-11T04:22:15.591Z,5.87
2018-05-11T04:24:41.962Z,8.70
2018-05-11T04:27:08.350Z,7.50
2018-05-11T04:29:34.720Z,7.45
2018-05-11T04:32:01.096Z,11.52
2018-05-11T04:34:27.466Z,4.68
2018-05-11T04:36:55.320Z,6.82
2018-05-11T04:39:22.426Z,6.20
2018-05-11T04:41:48.816Z,13.13
2018-05-11T04:44:15.220Z,5.00
2018-05-11T04:46:41.619Z,5.75
2018-05-11T04:49:07.971Z,4.65
2018-05-11T04:51:34.440Z,9.80
2018-05-11T04:54:00.820Z,8.07
2018-05-11T04:56:27.249Z,9.82
2018-05-11T04:58:53.625Z,8.32
2018-05-11T05:01:20.013Z,6.93
2018-05-11T05:03:46.361Z,8.55
2018-05-11T05:06:12.760Z,10.55
2018-05-11T05:08:39.176Z,6.32
2018-05-11T05:11:05.544Z,9.23
2018-05-11T05:13:31.957Z,9.93
2018-05-11T05:15:58.358Z,8.48
2018-05-11T05:18:24.816Z,7.22
2018-05-11T05:20:51.199Z,9.75
2018-05-11T05:23:17.612Z,13.45
2018-05-11T05:25:43.971Z,14.00
2018-05-11T05:28:11.117Z,11.63
2018-05-11T05:30:38.351Z,7.80
2018-05-11T05:33:04.827Z,7.32
2018-05-11T05:35:31.177Z,8.38
2018-05-11T05:37:57.599Z,8.35
2018-05-11T05:40:24.031Z,9.35
2018-05-11T05:42:50.420Z,10.80
2018-05-11T05:45:17.546Z,10.48
2018-05-11T05:47:43.943Z,9.90
2018-05-11T05:50:10.367Z,5.37
2018-05-11T05:52:37.548Z,8.45
2018-05-11T05:55:04.829Z,9.98
2018-05-11T05:57:31.995Z,10.98
2018-05-11T05:59:59.205Z,10.52
2018-05-11T06:02:25.592Z,7.80
2018-05-11T06:04:51.979Z,16.17
2018-05-11T06:07:18.388Z,12.60
2018-05-11T06:09:44.785Z,11.07
2018-05-11T06:12:11.215Z,8.93
2018-05-11T06:14:37.667Z,6.35
2018-05-11T06:17:04.087Z,9.10
2018-05-11T06:19:30.458Z,7.32
2018-05-11T06:21:56.924Z,9.02
2018-05-11T06:24:23.332Z,12.18
2018-05-11T06:26:49.814Z,8.38
2018-05-11T06:29:16.993Z,8.55
2018-05-11T06:31:43.458Z,17.77
2018-05-11T06:34:09.863Z,11.73
2018-05-11T06:36:36.259Z,8.10
2018-05-11T06:39:05.584Z,11.40
2018-05-11T06:41:31.978Z,12.35
2018-05-11T06:43:58.248Z,7.20
2018-05-11T06:46:25.396Z,9.25
2018-05-11T06:48:51.803Z,6.25
2018-05-11T06:51:18.228Z,8.35
2018-05-11T06:53:44.611Z,14.63
2018-05-11T06:56:11.738Z,9.27
2018-05-11T06:58:38.175Z,9.95
2018-05-11T07:01:04.589Z,10.63
2018-05-11T07:03:31.018Z,12.48
2018-05-11T07:05:57.434Z,11.93
2018-05-11T07:08:23.872Z,12.93
2018-05-11T07:10:50.410Z,12.65
2018-05-11T07:13:16.777Z,21.70
2018-05-11T07:15:43.955Z,12.57
2018-05-11T07:18:10.353Z,10.35
2018-05-11T07:20:37.578Z,11.07
2018-05-11T07:23:04.001Z,18.02
2018-05-11T07:25:30.455Z,12.30
2018-05-11T07:27:56.923Z,12.88
2018-05-11T07:30:24.132Z,13.23
2018-05-11T07:32:50.537Z,13.80
2018-05-11T07:35:16.901Z,11.40
2018-05-11T07:37:43.340Z,15.88
2018-05-11T07:40:09.697Z,13.23
2018-05-11T07:42:36.095Z,16.25
2018-05-11T07:45:03.268Z,16.85
2018-05-11T07:47:29.704Z,15.40
2018-05-11T07:49:56.126Z,20.95
2018-05-11T07:52:23.273Z,20.92
2018-05-11T07:54:50.413Z,27.85
2018-05-11T07:57:17.574Z,19.52
2018-05-11T07:59:44.759Z,17.75
2018-05-11T08:02:11.303Z,17.80
2018-05-11T08:04:38.428Z,28.30
2018-05-11T08:07:04.828Z,22.40
2018-05-11T08:09:31.279Z,25.80
2018-05-11T08:11:58.269Z,28.80
2018-05-11T08:14:24.751Z,26.73
2018-05-11T08:16:51.146Z,26.95
2018-05-11T08:19:27.549Z,25.60
2018-05-11T08:21:53.925Z,26.00
2018-05-11T08:24:20.351Z,33.30
2018-05-11T08:26:46.936Z,23.17
2018-05-11T08:29:13.276Z,28.52
2018-05-11T08:31:39.654Z,27.90
2018-05-11T08:34:06.141Z,20.85
2018-05-11T08:36:32.558Z,32.05
2018-05-11T08:38:59.677Z,33.42
2018-05-11T08:41:26.071Z,27.83
2018-05-11T08:43:52.515Z,28.80
2018-05-11T08:46:18.989Z,33.85
2018-05-11T08:48:45.315Z,27.40
2018-05-11T08:51:11.714Z,23.08
2018-05-11T08:53:38.132Z,24.58
2018-05-11T08:56:04.652Z,26.98
2018-05-11T08:58:31.024Z,27.08
2018-05-11T09:00:57.469Z,20.10
2018-05-11T09:03:24.611Z,23.33
2018-05-11T09:05:51.054Z,31.00
2018-05-11T09:08:18.372Z,25.65
2018-05-11T09:10:44.809Z,32.30
2018-05-11T09:13:11.211Z,22.33
2018-05-11T09:15:38.355Z,28.53
2018-05-11T09:18:04.823Z,25.47
2018-05-11T09:20:31.260Z,21.83
2018-05-11T09:22:57.633Z,28.47
2018-05-11T09:25:24.045Z,26.13
2018-05-11T09:27:50.497Z,24.97
2018-05-11T09:30:17.696Z,26.50
2018-05-11T09:32:44.641Z,29.83
2018-05-11T09:35:11.097Z,21.50
2018-05-11T09:37:38.284Z,29.10
2018-05-11T09:40:04.676Z,28.77
2018-05-11T09:42:31.060Z,22.93
2018-05-11T09:44:57.469Z,18.93
2018-05-11T09:47:23.958Z,16.67
2018-05-11T09:49:50.367Z,22.80
2018-05-11T09:52:16.739Z,20.77
2018-05-11T09:54:43.170Z,17.73
2018-05-11T09:57:09.643Z,19.97
2018-05-11T09:59:36.043Z,21.90
2018-05-11T10:02:02.492Z,16.73
2018-05-11T10:04:28.945Z,18.53
2018-05-11T10:06:55.352Z,24.03
2018-05-11T10:09:21.824Z,22.07
2018-05-11T10:11:48.256Z,19.23
2018-05-11T10:14:14.736Z,25.27
2018-05-11T10:16:41.924Z,25.87
2018-05-11T10:19:08.313Z,20.63
2018-05-11T10:21:34.826Z,19.40
2018-05-11T10:24:01.308Z,21.90
2018-05-11T10:26:27.678Z,27.90
2018-05-11T10:28:54.265Z,20.20
2018-05-11T10:31:21.315Z,22.83
2018-05-11T10:33:47.761Z,21.17
2018-05-11T10:36:14.194Z,19.93
2018-05-11T10:38:41.633Z,18.83
2018-05-11T10:41:08.072Z,18.10
2018-05-11T10:43:34.484Z,19.87
2018-05-11T10:46:00.976Z,21.83
2018-05-11T10:48:27.875Z,21.07
2018-05-11T10:50:54.224Z,24.40
2018-05-11T10:53:20.746Z,21.10
2018-05-11T10:55:47.203Z,22.03
2018-05-11T10:58:13.566Z,29.03
2018-05-11T11:00:40.011Z,17.77
2018-05-11T11:03:07.144Z,22.10
2018-05-11T11:05:40.461Z,19.03
2018-05-11T11:08:06.918Z,21.00
2018-05-11T11:10:33.327Z,19.00
2018-05-11T11:12:59.768Z,22.37
2018-05-11T11:15:26.166Z,21.57
2018-05-11T11:17:52.627Z,21.90
2018-05-11T11:20:19.024Z,22.23
2018-05-11T11:22:45.539Z,18.40
2018-05-11T11:25:11.950Z,19.77
2018-05-11T11:27:38.401Z,25.60
2018-05-11T11:30:05.676Z,25.23
2018-05-11T11:32:32.161Z,22.03
2018-05-11T11:34:58.636Z,22.87
2018-05-11T11:37:25.055Z,22.00
2018-05-11T11:39:51.461Z,24.73
2018-05-11T11:42:17.953Z,25.87
2018-05-11T11:44:44.349Z,20.67
2018-05-11T11:47:10.809Z,21.73
2018-05-11T11:49:37.292Z,21.70
2018-05-11T11:52:03.736Z,23.43
2018-05-11T11:54:30.128Z,34.57
2018-05-11T11:56:56.526Z,24.40
2018-05-11T11:59:22.912Z,22.80
2018-05-11T12:01:49.400Z,33.93
2018-05-11T12:04:15.803Z,22.83
2018-05-11T12:06:42.216Z,23.67
2018-05-11T12:09:08.667Z,21.53
2018-05-11T12:11:36.078Z,19.13
2018-05-11T12:14:02.537Z,21.27
2018-05-11T12:16:28.988Z,24.83
2018-05-11T12:18:55.468Z,20.63
2018-05-11T12:21:22.621Z,29.10
2018-05-11T12:23:49.050Z,25.17
2018-05-11T12:26:15.597Z,23.37
2018-05-11T12:28:42.023Z,24.30
2018-05-11T12:31:08.475Z,27.60
2018-05-11T12:33:34.876Z,25.10
2018-05-11T12:36:01.380Z,20.93
2018-05-11T12:38:27.812Z,29.27
2018-05-11T12:40:54.266Z,26.83
2018-05-11T12:43:21.425Z,21.83
2018-05-11T12:45:47.849Z,23.37
2018-05-11T12:48:14.233Z,25.57
2018-05-11T12:50:40.637Z,26.90
2018-05-11T12:53:07.113Z,18.50
2018-05-11T12:55:33.553Z,27.93
2018-05-11T12:57:59.963Z,20.53
2018-05-11T13:00:26.455Z,19.37
2018-05-11T13:02:52.861Z,22.77
2018-05-11T13:05:19.972Z,28.17
2018-05-11T13:07:46.373Z,19.40
2018-05-11T13:10:12.801Z,21.67
2018-05-11T13:12:39.237Z,27.83
2018-05-11T13:15:05.694Z,17.40
2018-05-11T13:17:32.178Z,24.70
2018-05-11T13:19:58.599Z,24.90
2018-05-11T13:22:25.704Z,21.27
2018-05-11T13:24:52.166Z,26.43
2018-05-11T13:27:18.572Z,23.53
2018-05-11T13:29:44.978Z,19.77
2018-05-11T13:32:11.417Z,19.07
2018-05-11T13:34:37.853Z,20.90
2018-05-11T13:37:04.316Z,20.33
2018-05-11T13:39:31.457Z,27.33
2018-05-11T13:41:57.976Z,24.03
2018-05-11T13:44:24.369Z,20.67
2018-05-11T13:46:50.845Z,19.43
2018-05-11T13:49:17.349Z,19.23
2018-05-11T13:51:43.781Z,18.57
2018-05-11T13:54:10.482Z,19.90
2018-05-11T13:56:36.960Z,16.60
2018-05-11T14:01:36.859Z,16.47
2018-05-11T14:04:03.287Z,22.03
2018-05-11T14:06:30.466Z,21.70
2018-05-11T14:08:56.936Z,18.83
2018-05-11T14:11:24.109Z,15.67
2018-05-11T14:13:50.531Z,18.30
2018-05-11T14:16:16.918Z,18.77
2018-05-11T14:18:43.427Z,17.93
2018-05-11T14:21:09.833Z,16.30
2018-05-11T14:23:37.006Z,17.63
2018-05-11T14:26:03.491Z,18.53
2018-05-11T14:28:29.972Z,20.63
2018-05-11T14:30:56.440Z,17.77
2018-05-11T14:33:22.853Z,24.83
2018-05-11T14:35:49.349Z,20.77
2018-05-11T14:38:15.794Z,16.60
2018-05-11T14:40:42.250Z,20.60
2018-05-11T14:43:09.450Z,20.07
2018-05-11T14:45:35.910Z,13.47
2018-05-11T14:48:02.319Z,17.27
2018-05-11T14:50:29.426Z,17.30
2018-05-11T14:52:55.888Z,15.63
2018-05-11T14:55:23.092Z,18.20
2018-05-11T14:57:49.585Z,17.10
2018-05-11T15:00:16.034Z,19.60
2018-05-11T15:02:42.832Z,16.27
2018-05-11T15:05:09.268Z,16.23
2018-05-11T15:07:35.757Z,15.00
2018-05-11T15:10:05.396Z,17.30
2018-05-11T15:12:33.469Z,19.43
2018-05-11T15:14:59.858Z,19.83
2018-05-11T15:17:26.257Z,18.50
2018-05-11T15:19:53.420Z,19.03
2018-05-11T15:22:20.565Z,14.23
2018-05-11T15:24:47.696Z,18.13
2018-05-11T15:27:14.823Z,17.40
2018-05-11T15:29:41.267Z,19.57
2018-05-11T15:32:07.645Z,19.10
2018-05-11T15:34:34.077Z,20.03
2018-05-11T15:37:00.511Z,22.00
2018-05-11T15:39:26.915Z,19.50
2018-05-11T15:41:53.320Z,18.63
2018-05-11T15:44:19.770Z,16.53
2018-05-11T15:46:46.147Z,19.57
2018-05-11T15:49:12.580Z,15.07
2018-05-11T15:51:39.710Z,15.70
2018-05-11T15:54:06.119Z,18.10
2018-05-11T15:56:33.285Z,19.23
2018-05-11T15:58:59.779Z,22.17
2018-05-11T16:01:26.836Z,16.27
2018-05-11T16:03:53.270Z,16.57
2018-05-11T16:06:20.407Z,21.63
2018-05-11T16:08:46.845Z,18.43
2018-05-11T16:11:13.350Z,19.63
2018-05-11T16:13:39.768Z,24.60
2018-05-11T16:16:06.193Z,21.23
2018-05-11T16:18:32.621Z,16.70
2018-05-11T16:20:59.078Z,26.07
2018-05-11T16:23:25.527Z,18.93
2018-05-11T16:25:51.954Z,16.90
2018-05-11T16:28:18.431Z,19.33
2018-05-11T16:30:44.884Z,25.13
2018-05-11T16:33:11.268Z,19.60
2018-05-11T16:35:38.426Z,20.67
2018-05-11T16:38:04.848Z,26.07
2018-05-11T16:40:32.065Z,18.80
2018-05-11T16:42:58.506Z,18.10
2018-05-11T16:45:24.943Z,15.50
2018-05-11T16:47:51.478Z,18.80
2018-05-11T16:50:17.900Z,17.70
2018-05-11T16:52:45.225Z,18.53
2018-05-11T16:55:11.660Z,17.30
2018-05-11T16:57:38.136Z,21.13
2018-05-11T17:00:05.351Z,20.50
2018-05-11T17:02:32.545Z,18.07
2018-05-11T17:04:59.717Z,21.70
2018-05-11T17:07:26.152Z,14.77
2018-05-11T17:09:52.581Z,17.97
2018-05-11T17:12:19.747Z,16.80
2018-05-11T17:14:46.211Z,15.70
2018-05-11T17:17:12.649Z,22.20
2018-05-11T17:19:39.062Z,21.37
2018-05-11T17:22:05.483Z,18.10
2018-05-11T17:24:31.944Z,15.67
2018-05-11T17:26:58.336Z,17.03
2018-05-11T17:29:24.753Z,17.57
2018-05-11T17:31:51.169Z,14.90
2018-05-11T17:34:17.593Z,17.27
2018-05-11T17:36:44.031Z,21.60
2018-05-11T17:39:10.470Z,17.10
2018-05-11T17:41:36.958Z,16.90
2018-05-11T17:44:03.360Z,16.10
2018-05-11T17:46:29.827Z,17.53
2018-05-11T17:48:56.216Z,18.00
2018-05-11T17:51:22.657Z,18.73
2018-05-11T17:53:49.093Z,19.03
2018-05-11T17:56:15.529Z,18.90
2018-05-11T17:58:42.638Z,18.87
2018-05-11T18:01:09.037Z,35.37
2018-05-11T18:03:35.477Z,18.20
2018-05-11T18:06:01.959Z,23.90
2018-05-11T18:08:29.129Z,24.13
2018-05-11T18:10:55.562Z,22.77
2018-05-11T18:13:22.022Z,17.70
2018-05-11T18:15:48.424Z,15.33
2018-05-11T18:18:14.917Z,14.90
2018-05-11T18:20:41.351Z,18.20
2018-05-11T18:23:07.779Z,19.13
2018-05-11T18:25:34.160Z,22.00
2018-05-11T18:28:00.550Z,18.07
2018-05-11T18:30:27.729Z,17.13
2018-05-11T18:32:54.207Z,17.63
2018-05-11T18:35:22.370Z,16.03
2018-05-11T18:37:49.497Z,22.10
2018-05-11T18:40:15.991Z,17.80
2018-05-11T18:42:42.922Z,17.47
2018-05-11T18:45:12.661Z,17.43
2018-05-11T18:47:39.857Z,18.13
2018-05-11T18:50:06.297Z,21.03
2018-05-11T18:52:32.760Z,15.57
2018-05-11T18:54:59.170Z,19.13
2018-05-11T18:57:25.598Z,18.43
2018-05-11T18:59:52.031Z,22.43
2018-05-11T19:02:18.428Z,15.77
2018-05-11T19:04:44.869Z,19.90
2018-05-11T19:07:11.254Z,17.50
2018-05-11T19:09:37.657Z,17.23
2018-05-11T19:12:04.840Z,14.90
2018-05-11T19:14:31.277Z,18.20
2018-05-11T19:16:57.675Z,18.73
2018-05-11T19:19:24.115Z,25.93
2018-05-11T19:21:50.531Z,21.17
2018-05-11T19:24:17.646Z,18.20
2018-05-11T19:26:44.056Z,20.40
2018-05-11T19:29:10.500Z,23.33
2018-05-11T19:31:36.889Z,19.63
2018-05-11T19:34:03.354Z,27.53
2018-05-11T19:36:29.778Z,21.10
2018-05-11T19:38:57.153Z,21.47
2018-05-11T19:41:23.694Z,18.73
2018-05-11T19:43:50.892Z,21.00
2018-05-11T19:46:17.314Z,20.57
2018-05-11T19:48:43.774Z,23.80
2018-05-11T19:51:10.148Z,18.73
2018-05-11T19:53:36.552Z,25.93
2018-05-11T19:56:03.083Z,22.80
2018-05-11T19:58:29.612Z,18.37
2018-05-11T20:00:55.985Z,20.97
2018-05-11T20:03:23.136Z,20.20
2018-05-11T20:05:50.286Z,20.97
2018-05-11T20:08:16.721Z,22.17
2018-05-11T20:10:43.147Z,15.70
2018-05-11T20:13:09.634Z,19.40
2018-05-11T20:15:36.068Z,17.03
2018-05-11T20:18:02.584Z,18.13
2018-05-11T20:20:29.102Z,16.40
2018-05-11T20:22:55.481Z,20.40
2018-05-11T20:25:21.936Z,21.40
2018-05-11T20:27:48.366Z,20.37
2018-05-11T20:30:14.785Z,15.53
2018-05-11T20:32:41.284Z,13.60
2018-05-11T20:35:07.756Z,14.30
2018-05-11T20:37:34.192Z,15.03
2018-05-11T20:40:01.346Z,15.70
2018-05-11T20:42:27.761Z,18.30
2018-05-11T20:44:54.152Z,20.63
2018-05-11T20:47:20.524Z,17.33
2018-05-11T20:49:47.164Z,15.67
2018-05-11T20:52:14.396Z,19.37
2018-05-11T20:54:40.858Z,22.63
2018-05-11T20:57:07.389Z,20.80
2018-05-11T20:59:33.848Z,15.23
2018-05-11T21:02:00.258Z,16.33
2018-05-11T21:04:27.621Z,21.43
2018-05-11T21:06:54.070Z,18.83
2018-05-11T21:09:20.565Z,17.60
2018-05-11T21:11:47.138Z,25.43
2018-05-11T21:14:13.580Z,18.40
2018-05-11T21:16:39.948Z,23.83
2018-05-11T21:19:07.287Z,24.60
2018-05-11T21:21:34.560Z,22.13
2018-05-11T21:24:01.013Z,18.53
2018-05-11T21:26:28.205Z,18.67
2018-05-11T21:28:55.645Z,19.60
2018-05-11T21:31:22.057Z,18.07
2018-05-11T21:33:48.489Z,23.07
2018-05-11T21:36:14.912Z,20.15
2018-05-11T21:38:42.060Z,21.30
2018-05-11T21:41:09.278Z,23.73
2018-05-11T21:43:35.677Z,21.13
2018-05-11T21:46:02.094Z,22.03
2018-05-11T21:48:28.512Z,18.20
2018-05-11T21:50:54.988Z,20.73
2018-05-11T21:53:21.900Z,23.77
2018-05-11T21:55:48.331Z,22.70
2018-05-11T21:58:14.717Z,20.25
2018-05-11T22:00:41.948Z,22.70
2018-05-11T22:03:08.360Z,25.70
2018-05-11T22:05:34.754Z,26.98
2018-05-11T22:08:01.948Z,22.48
2018-05-11T22:10:28.475Z,23.00
2018-05-11T22:13:01.869Z,24.25
2018-05-11T22:15:28.284Z,28.80
2018-05-11T22:17:54.704Z,24.65
2018-05-11T22:20:21.128Z,29.12
2018-05-11T22:22:48.373Z,22.30
2018-05-11T22:25:16.457Z,22.85
2018-05-11T22:27:42.957Z,27.90
2018-05-11T22:30:09.413Z,22.52
2018-05-11T22:32:36.562Z,24.00
2018-05-11T22:35:03.022Z,21.87
2018-05-11T22:37:29.419Z,24.20
2018-05-11T22:39:56.545Z,22.87
2018-05-11T22:42:24.159Z,29.40
2018-05-11T22:44:50.615Z,24.33
2018-05-11T22:47:17.028Z,24.75
2018-05-11T22:49:43.453Z,22.33
2018-05-11T22:52:09.817Z,21.42
2018-05-11T22:54:36.275Z,24.40
2018-05-11T22:57:02.682Z,29.00
2018-05-11T22:59:29.064Z,25.75
2018-05-11T23:01:55.483Z,27.95
2018-05-11T23:04:28.669Z,30.80
2018-05-11T23:06:55.832Z,32.13
2018-05-11T23:09:22.284Z,29.98
2018-05-11T23:11:48.707Z,27.50
2018-05-11T23:14:15.180Z,28.83
2018-05-11T23:16:41.578Z,29.77
2018-05-11T23:19:07.961Z,33.25
2018-05-11T23:21:34.374Z,30.08
2018-05-11T23:24:00.801Z,25.67
2018-05-11T23:26:27.256Z,34.22
2018-05-11T23:28:54.411Z,30.30
2018-05-11T23:31:20.777Z,31.60
2018-05-11T23:33:47.733Z,28.10
2018-05-11T23:36:14.124Z,31.15
2018-05-11T23:38:41.264Z,29.40
2018-05-11T23:41:08.902Z,27.08
2018-05-11T23:43:35.267Z,38.58
2018-05-11T23:46:01.733Z,37.83
2018-05-11T23:48:28.112Z,30.08
2018-05-11T23:50:54.502Z,33.05
2018-05-11T23:53:20.995Z,33.03
2018-05-11T23:55:47.400Z,36.63
2018-05-11T23:58:14.546Z,33.10
